createdAt,value
2018-03-30T00:00:53.962Z,16.90
2018-03-30T00:01:53.989Z,16.30
2018-03-30T00:02:53.980Z,16.40
2018-03-30T00:03:53.986Z,16.30
2018-03-30T00:04:54.024Z,17.10
2018-03-30T00:05:54.000Z,16.90
2018-03-30T00:06:54.007Z,16.90
2018-03-30T00:07:54.006Z,17.50
2018-03-30T00:08:54.027Z,16.70
2018-03-30T00:09:54.077Z,18.00
2018-03-30T00:10:54.042Z,16.80
2018-03-30T00:11:54.041Z,16.80
2018-03-30T00:12:54.046Z,17.70
2018-03-30T00:13:54.054Z,17.60
2018-03-30T00:14:54.115Z,16.60
2018-03-30T00:15:54.071Z,17.00
2018-03-30T00:16:54.078Z,16.50
2018-03-30T00:17:54.086Z,17.20
2018-03-30T00:18:54.086Z,16.70
2018-03-30T00:19:54.096Z,16.50
2018-03-30T00:20:54.129Z,17.10
2018-03-30T00:21:54.114Z,17.30
2018-03-30T00:22:54.117Z,17.10
2018-03-30T00:23:54.140Z,16.80
2018-03-30T00:24:54.135Z,16.60
2018-03-30T00:25:54.228Z,16.80
2018-03-30T00:26:54.143Z,16.00
2018-03-30T00:27:54.202Z,16.80
2018-03-30T00:28:54.166Z,17.00
2018-03-30T00:29:54.165Z,17.20
2018-03-30T00:30:54.218Z,17.00
2018-03-30T00:31:54.177Z,17.70
2018-03-30T00:32:54.198Z,16.90
2018-03-30T00:33:54.223Z,17.00
2018-03-30T00:34:54.218Z,16.20
2018-03-30T00:35:54.221Z,17.00
2018-03-30T00:36:54.243Z,17.10
2018-03-30T00:37:54.250Z,16.80
2018-03-30T00:38:54.252Z,17.60
2018-03-30T00:39:54.232Z,17.70
2018-03-30T00:40:54.244Z,17.80
2018-03-30T00:41:54.269Z,18.20
2018-03-30T00:42:54.317Z,17.20
2018-03-30T00:43:54.259Z,18.20
2018-03-30T00:44:54.281Z,18.10
2018-03-30T00:45:54.275Z,18.70
2018-03-30T00:46:54.290Z,18.10
2018-03-30T00:47:54.295Z,18.70
2018-03-30T00:48:54.386Z,19.40
2018-03-30T00:49:54.314Z,18.50
2018-03-30T00:50:54.309Z,19.50
2018-03-30T00:51:54.320Z,19.60
2018-03-30T00:52:54.349Z,20.10
2018-03-30T00:53:54.368Z,20.50
2018-03-30T00:54:54.381Z,20.40
2018-03-30T00:55:54.355Z,20.60
2018-03-30T00:56:54.354Z,20.40
2018-03-30T00:57:54.358Z,21.10
2018-03-30T00:58:54.432Z,23.20
2018-03-30T00:59:54.380Z,22.50
2018-03-30T01:00:54.405Z,22.40
2018-03-30T01:01:54.434Z,22.20
2018-03-30T01:02:54.396Z,23.40
2018-03-30T01:03:54.399Z,21.90
2018-03-30T01:04:54.443Z,22.50
2018-03-30T01:05:54.417Z,22.60
2018-03-30T01:06:54.456Z,23.00
2018-03-30T01:07:54.473Z,23.80
2018-03-30T01:08:54.434Z,23.50
2018-03-30T01:09:54.442Z,23.10
2018-03-30T01:10:54.452Z,24.10
2018-03-30T01:11:54.493Z,21.90
2018-03-30T01:12:54.463Z,24.10
2018-03-30T01:13:54.469Z,23.50
2018-03-30T01:14:54.492Z,25.40
2018-03-30T01:15:54.482Z,24.40
2018-03-30T01:16:54.552Z,22.20
2018-03-30T01:17:54.511Z,24.80
2018-03-30T01:18:54.500Z,25.60
2018-03-30T01:19:54.508Z,23.80
2018-03-30T01:20:54.517Z,23.40
2018-03-30T01:21:54.524Z,22.80
2018-03-30T01:22:54.569Z,22.80
2018-03-30T01:23:54.569Z,23.90
2018-03-30T01:24:54.544Z,24.20
2018-03-30T01:25:54.548Z,24.00
2018-03-30T01:26:54.560Z,23.70
2018-03-30T01:27:54.559Z,24.40
2018-03-30T01:28:54.632Z,24.20
2018-03-30T01:29:54.575Z,23.80
2018-03-30T01:30:54.584Z,22.90
2018-03-30T01:31:54.613Z,23.70
2018-03-30T01:32:54.595Z,25.80
2018-03-30T01:33:54.635Z,22.70
2018-03-30T01:34:54.645Z,23.20
2018-03-30T01:35:54.615Z,23.40
2018-03-30T01:36:54.622Z,24.00
2018-03-30T01:37:54.627Z,23.80
2018-03-30T01:38:54.635Z,23.80
2018-03-30T01:39:54.643Z,23.60
2018-03-30T01:40:54.692Z,24.20
2018-03-30T01:41:54.655Z,25.30
2018-03-30T01:42:54.686Z,25.80
2018-03-30T01:43:54.672Z,24.20
2018-03-30T01:44:54.712Z,23.20
2018-03-30T01:45:54.735Z,23.10
2018-03-30T01:46:54.690Z,24.60
2018-03-30T01:47:54.695Z,24.80
2018-03-30T01:48:54.697Z,23.70
2018-03-30T01:49:54.774Z,24.90
2018-03-30T01:50:54.761Z,24.40
2018-03-30T01:51:54.721Z,24.40
2018-03-30T01:52:54.735Z,24.90
2018-03-30T01:53:54.744Z,25.10
2018-03-30T01:54:54.746Z,24.80
2018-03-30T01:55:54.750Z,23.60
2018-03-30T01:56:54.808Z,23.80
2018-03-30T01:57:54.765Z,24.60
2018-03-30T01:58:54.768Z,24.40
2018-03-30T01:59:54.779Z,24.60
2018-03-30T02:00:54.816Z,24.70
2018-03-30T02:01:54.831Z,24.50
2018-03-30T02:02:54.796Z,26.80
2018-03-30T02:03:54.834Z,25.80
2018-03-30T02:04:54.815Z,24.10
2018-03-30T02:05:54.820Z,23.70
2018-03-30T02:06:54.821Z,23.70
2018-03-30T02:07:54.859Z,24.30
2018-03-30T02:08:54.877Z,25.20
2018-03-30T02:09:54.842Z,24.50
2018-03-30T02:10:54.851Z,25.20
2018-03-30T02:11:54.858Z,25.30
2018-03-30T02:12:54.861Z,25.80
2018-03-30T02:13:54.905Z,25.30
2018-03-30T02:14:54.894Z,24.60
2018-03-30T02:15:54.929Z,25.40
2018-03-30T02:16:54.886Z,25.80
2018-03-30T02:17:54.904Z,24.80
2018-03-30T02:18:54.961Z,25.10
2018-03-30T02:19:54.914Z,25.70
2018-03-30T02:20:54.915Z,26.50
2018-03-30T02:21:54.933Z,25.40
2018-03-30T02:22:54.926Z,26.20
2018-03-30T02:23:54.934Z,26.60
2018-03-30T02:24:54.997Z,26.20
2018-03-30T02:25:54.943Z,27.30
2018-03-30T02:26:54.954Z,26.90
2018-03-30T02:27:54.960Z,25.80
2018-03-30T02:28:55.014Z,26.50
2018-03-30T02:29:54.975Z,26.50
2018-03-30T02:30:54.994Z,26.80
2018-03-30T02:31:55.012Z,26.50
2018-03-30T02:32:55.015Z,25.50
2018-03-30T02:33:55.015Z,25.30
2018-03-30T02:34:55.042Z,26.40
2018-03-30T02:35:55.019Z,25.90
2018-03-30T02:36:55.032Z,25.70
2018-03-30T02:37:55.106Z,26.50
2018-03-30T02:38:55.030Z,25.70
2018-03-30T02:39:55.094Z,25.60
2018-03-30T02:40:55.108Z,27.40
2018-03-30T02:41:55.061Z,26.00
2018-03-30T02:42:55.060Z,27.10
2018-03-30T02:43:55.066Z,25.90
2018-03-30T02:44:55.074Z,27.30
2018-03-30T02:45:55.081Z,26.30
2018-03-30T02:46:55.192Z,26.20
2018-03-30T02:47:55.093Z,26.20
2018-03-30T02:48:55.101Z,25.60
2018-03-30T02:49:55.104Z,26.60
2018-03-30T02:50:55.140Z,27.50
2018-03-30T02:51:55.121Z,26.70
2018-03-30T02:52:55.186Z,26.40
2018-03-30T02:53:55.155Z,26.70
2018-03-30T02:54:55.170Z,28.40
2018-03-30T02:55:55.151Z,26.90
2018-03-30T02:56:55.156Z,26.60
2018-03-30T02:57:55.177Z,27.30
2018-03-30T02:58:55.205Z,27.40
2018-03-30T02:59:55.175Z,28.60
2018-03-30T03:00:55.184Z,28.00
2018-03-30T03:01:55.192Z,28.30
2018-03-30T03:02:55.232Z,28.60
2018-03-30T03:03:55.200Z,28.00
2018-03-30T03:04:55.227Z,28.20
2018-03-30T03:05:55.264Z,28.60
2018-03-30T03:06:55.220Z,27.50
2018-03-30T03:07:55.223Z,28.30
2018-03-30T03:08:55.233Z,29.40
2018-03-30T03:09:55.236Z,28.90
2018-03-30T03:10:55.268Z,29.30
2018-03-30T03:11:55.264Z,28.30
2018-03-30T03:12:55.257Z,29.40
2018-03-30T03:13:55.320Z,29.40
2018-03-30T03:14:55.273Z,30.90
2018-03-30T03:15:55.286Z,30.10
2018-03-30T03:16:55.283Z,29.90
2018-03-30T03:17:55.301Z,30.90
2018-03-30T03:18:55.307Z,29.20
2018-03-30T03:19:55.350Z,29.10
2018-03-30T03:20:55.307Z,29.80
2018-03-30T03:21:55.304Z,29.70
2018-03-30T03:22:55.332Z,29.20
2018-03-30T03:23:55.420Z,29.50
2018-03-30T03:24:55.329Z,29.10
2018-03-30T03:25:55.845Z,29.60
2018-03-30T03:26:55.340Z,30.20
2018-03-30T03:27:55.348Z,29.20
2018-03-30T03:28:55.350Z,30.20
2018-03-30T03:29:55.360Z,29.40
2018-03-30T03:30:55.371Z,28.90
2018-03-30T03:31:55.408Z,29.50
2018-03-30T03:32:55.377Z,29.90
2018-03-30T03:33:55.382Z,28.70
2018-03-30T03:34:55.387Z,29.80
2018-03-30T03:35:55.448Z,29.60
2018-03-30T03:36:55.420Z,29.90
2018-03-30T03:37:55.408Z,27.90
2018-03-30T03:38:55.415Z,29.30
2018-03-30T03:39:55.429Z,28.50
2018-03-30T03:40:55.433Z,28.30
2018-03-30T03:41:55.473Z,29.40
2018-03-30T03:42:55.448Z,29.20
2018-03-30T03:43:55.460Z,29.40
2018-03-30T03:44:55.451Z,29.20
2018-03-30T03:45:55.515Z,29.00
2018-03-30T03:46:55.470Z,28.10
2018-03-30T03:47:55.487Z,28.20
2018-03-30T03:48:55.535Z,28.80
2018-03-30T03:49:55.485Z,28.00
2018-03-30T03:50:55.507Z,27.60
2018-03-30T03:51:55.533Z,27.30
2018-03-30T03:52:55.545Z,26.70
2018-03-30T03:53:55.513Z,27.20
2018-03-30T03:54:55.523Z,27.00
2018-03-30T03:55:55.537Z,27.90
2018-03-30T03:56:55.542Z,27.40
2018-03-30T03:57:55.540Z,26.30
2018-03-30T03:58:55.564Z,26.90
2018-03-30T03:59:55.553Z,26.30
2018-03-30T04:00:55.558Z,27.20
2018-03-30T04:01:55.571Z,26.80
2018-03-30T04:02:55.556Z,26.20
2018-03-30T04:03:55.941Z,26.70
2018-03-30T04:04:55.588Z,26.20
2018-03-30T04:05:55.626Z,25.00
2018-03-30T04:06:55.584Z,25.00
2018-03-30T04:07:55.589Z,26.80
2018-03-30T04:08:55.599Z,25.50
2018-03-30T04:09:55.638Z,24.90
2018-03-30T04:10:55.605Z,25.40
2018-03-30T04:11:55.613Z,24.80
2018-03-30T04:12:55.649Z,25.80
2018-03-30T04:13:55.665Z,24.90
2018-03-30T04:14:55.634Z,23.80
2018-03-30T04:15:55.640Z,22.80
2018-03-30T04:16:55.645Z,22.80
2018-03-30T04:17:55.651Z,22.70
2018-03-30T04:18:55.661Z,23.40
2018-03-30T04:19:55.711Z,23.20
2018-03-30T04:20:55.667Z,23.00
2018-03-30T04:21:55.675Z,22.80
2018-03-30T04:22:55.678Z,22.90
2018-03-30T04:23:55.682Z,22.50
2018-03-30T04:24:55.710Z,23.20
2018-03-30T04:25:55.752Z,23.60
2018-03-30T04:26:55.731Z,23.30
2018-03-30T04:27:55.715Z,22.90
2018-03-30T04:28:55.715Z,23.30
2018-03-30T04:29:55.727Z,23.80
2018-03-30T04:30:55.732Z,24.10
2018-03-30T04:31:55.796Z,23.00
2018-03-30T04:32:55.737Z,24.20
2018-03-30T04:33:55.797Z,24.60
2018-03-30T04:34:55.756Z,22.90
2018-03-30T04:35:55.759Z,22.80
2018-03-30T04:36:55.765Z,22.90
2018-03-30T04:37:55.786Z,22.70
2018-03-30T04:38:55.775Z,22.40
2018-03-30T04:39:55.828Z,23.60
2018-03-30T04:40:55.804Z,23.10
2018-03-30T04:41:55.848Z,23.60
2018-03-30T04:42:55.796Z,22.80
2018-03-30T04:43:55.805Z,23.10
2018-03-30T04:44:55.847Z,22.20
2018-03-30T04:45:55.827Z,22.60
2018-03-30T04:46:55.841Z,22.30
2018-03-30T04:47:55.873Z,22.10
2018-03-30T04:48:55.838Z,22.20
2018-03-30T04:49:55.846Z,23.00
2018-03-30T04:50:55.852Z,22.10
2018-03-30T04:51:55.941Z,22.10
2018-03-30T04:52:55.869Z,21.40
2018-03-30T04:53:55.927Z,22.40
2018-03-30T04:54:55.880Z,21.50
2018-03-30T04:55:55.885Z,21.80
2018-03-30T04:56:55.892Z,21.40
2018-03-30T04:57:55.901Z,21.10
2018-03-30T04:58:55.913Z,20.90
2018-03-30T04:59:55.968Z,20.30
2018-03-30T05:00:55.912Z,19.80
2018-03-30T05:01:55.940Z,20.10
2018-03-30T05:02:55.927Z,18.60
2018-03-30T05:03:55.932Z,18.50
2018-03-30T05:04:55.932Z,18.60
2018-03-30T05:05:55.985Z,18.60
2018-03-30T05:06:55.953Z,20.00
2018-03-30T05:07:55.965Z,19.40
2018-03-30T05:08:55.964Z,20.80
2018-03-30T05:09:55.989Z,17.60
2018-03-30T05:10:56.005Z,18.10
2018-03-30T05:11:56.008Z,16.50
2018-03-30T05:12:55.998Z,17.50
2018-03-30T05:13:55.987Z,18.10
2018-03-30T05:14:56.092Z,16.30
2018-03-30T05:15:56.005Z,16.40
2018-03-30T05:16:56.052Z,15.50
2018-03-30T05:17:56.016Z,15.60
2018-03-30T05:18:56.030Z,14.90
2018-03-30T05:19:56.038Z,15.40
2018-03-30T05:20:56.047Z,16.00
2018-03-30T05:21:56.038Z,14.50
2018-03-30T05:22:56.072Z,14.70
2018-03-30T05:23:56.067Z,15.30
2018-03-30T05:24:56.060Z,14.80
2018-03-30T05:25:56.097Z,15.40
2018-03-30T05:26:56.063Z,13.70
2018-03-30T05:27:56.114Z,14.70
2018-03-30T05:28:56.179Z,15.30
2018-03-30T05:29:56.164Z,15.00
2018-03-30T05:30:56.156Z,14.60
2018-03-30T05:31:56.142Z,15.40
2018-03-30T05:32:56.095Z,15.90
2018-03-30T05:33:56.110Z,14.60
2018-03-30T05:34:56.109Z,15.60
2018-03-30T05:35:56.141Z,17.70
2018-03-30T05:36:56.123Z,15.30
2018-03-30T05:37:56.159Z,16.10
2018-03-30T05:38:56.134Z,15.10
2018-03-30T05:39:56.137Z,16.00
2018-03-30T05:40:56.234Z,15.70
2018-03-30T05:41:56.187Z,15.40
2018-03-30T05:42:56.199Z,16.20
2018-03-30T05:43:56.186Z,15.90
2018-03-30T05:44:56.175Z,16.10
2018-03-30T05:45:56.181Z,15.50
2018-03-30T05:46:56.248Z,14.90
2018-03-30T05:47:56.241Z,15.20
2018-03-30T05:48:56.197Z,14.40
2018-03-30T05:49:56.295Z,14.30
2018-03-30T05:50:56.306Z,14.00
2018-03-30T05:51:56.218Z,13.60
2018-03-30T05:52:56.220Z,13.40
2018-03-30T05:53:56.278Z,13.80
2018-03-30T05:54:56.239Z,13.10
2018-03-30T05:55:56.240Z,12.70
2018-03-30T05:56:56.264Z,12.20
2018-03-30T05:57:56.257Z,11.50
2018-03-30T05:58:56.299Z,11.30
2018-03-30T05:59:56.312Z,12.30
2018-03-30T06:00:56.276Z,11.80
2018-03-30T06:01:56.286Z,11.60
2018-03-30T06:02:56.352Z,15.10
2018-03-30T06:03:56.295Z,13.70
2018-03-30T06:04:56.305Z,12.80
2018-03-30T06:05:56.312Z,11.40
2018-03-30T06:06:56.318Z,10.90
2018-03-30T06:07:56.328Z,11.50
2018-03-30T06:08:56.378Z,11.20
2018-03-30T06:09:56.339Z,11.20
2018-03-30T06:10:56.417Z,11.70
2018-03-30T06:11:56.354Z,12.40
2018-03-30T06:12:56.417Z,12.20
2018-03-30T06:13:56.366Z,13.70
2018-03-30T06:14:56.419Z,12.90
2018-03-30T06:15:56.377Z,12.90
2018-03-30T06:16:56.397Z,13.20
2018-03-30T06:17:56.401Z,13.70
2018-03-30T06:18:56.403Z,13.90
2018-03-30T06:19:56.418Z,14.80
2018-03-30T06:20:56.469Z,13.70
2018-03-30T06:21:56.421Z,13.80
2018-03-30T06:22:56.431Z,14.70
2018-03-30T06:23:56.436Z,14.50
2018-03-30T06:24:56.440Z,14.80
2018-03-30T06:25:56.448Z,14.80
2018-03-30T06:26:56.490Z,14.20
2018-03-30T06:27:56.460Z,13.30
2018-03-30T06:28:56.583Z,13.30
2018-03-30T06:29:56.473Z,13.80
2018-03-30T06:30:56.475Z,13.00
2018-03-30T06:31:56.487Z,13.80
2018-03-30T06:32:56.493Z,14.00
2018-03-30T06:33:56.502Z,14.10
2018-03-30T06:34:57.056Z,13.40
2018-03-30T06:35:56.510Z,13.60
2018-03-30T06:36:56.518Z,14.80
2018-03-30T06:37:56.537Z,13.70
2018-03-30T06:38:56.532Z,14.40
2018-03-30T06:39:56.562Z,14.80
2018-03-30T06:40:56.620Z,15.30
2018-03-30T06:41:56.549Z,14.60
2018-03-30T06:42:56.556Z,15.00
2018-03-30T06:43:56.567Z,14.60
2018-03-30T06:44:56.573Z,14.10
2018-03-30T06:45:56.575Z,14.30
2018-03-30T06:46:56.634Z,15.50
2018-03-30T06:47:56.612Z,15.20
2018-03-30T06:48:56.594Z,14.40
2018-03-30T06:49:56.631Z,14.30
2018-03-30T06:50:56.632Z,14.90
2018-03-30T06:51:56.624Z,15.70
2018-03-30T06:52:56.665Z,14.30
2018-03-30T06:53:56.646Z,15.10
2018-03-30T06:54:56.634Z,15.10
2018-03-30T06:55:56.647Z,15.00
2018-03-30T06:56:56.661Z,15.20
2018-03-30T06:57:56.717Z,14.40
2018-03-30T06:58:56.722Z,14.20
2018-03-30T06:59:56.767Z,15.50
2018-03-30T07:00:56.699Z,14.50
2018-03-30T07:01:56.681Z,14.50
2018-03-30T07:02:56.716Z,14.70
2018-03-30T07:03:56.701Z,15.00
2018-03-30T07:04:56.740Z,14.20
2018-03-30T07:05:56.710Z,14.30
2018-03-30T07:06:56.714Z,14.40
2018-03-30T07:07:56.724Z,14.20
2018-03-30T07:08:56.732Z,15.10
2018-03-30T07:09:56.737Z,14.70
2018-03-30T07:10:56.786Z,14.60
2018-03-30T07:11:56.752Z,14.50
2018-03-30T07:12:56.759Z,14.20
2018-03-30T07:13:56.789Z,15.00
2018-03-30T07:14:56.775Z,14.50
2018-03-30T07:15:56.807Z,14.30
2018-03-30T07:16:56.854Z,15.10
2018-03-30T07:17:56.791Z,15.20
2018-03-30T07:18:56.814Z,15.40
2018-03-30T07:19:56.805Z,15.20
2018-03-30T07:20:56.815Z,14.90
2018-03-30T07:21:56.832Z,14.50
2018-03-30T07:22:56.864Z,14.80
2018-03-30T07:23:56.837Z,14.80
2018-03-30T07:24:56.882Z,15.10
2018-03-30T07:25:56.844Z,15.00
2018-03-30T07:26:56.852Z,14.60
2018-03-30T07:27:56.857Z,14.30
2018-03-30T07:28:56.900Z,15.20
2018-03-30T07:29:56.877Z,15.00
2018-03-30T07:30:56.883Z,14.60
2018-03-30T07:31:56.886Z,14.90
2018-03-30T07:32:56.912Z,15.20
2018-03-30T07:33:56.899Z,15.10
2018-03-30T07:34:56.959Z,15.40
2018-03-30T07:35:56.909Z,14.90
2018-03-30T07:36:56.919Z,15.00
2018-03-30T07:37:56.936Z,15.10
2018-03-30T07:38:56.931Z,14.70
2018-03-30T07:39:56.940Z,15.20
2018-03-30T07:40:56.981Z,14.70
2018-03-30T07:41:56.966Z,15.30
2018-03-30T07:42:56.965Z,14.30
2018-03-30T07:43:56.978Z,14.90
2018-03-30T07:44:57.028Z,14.50
2018-03-30T07:45:57.011Z,14.60
2018-03-30T07:46:56.987Z,14.80
2018-03-30T07:47:56.996Z,15.20
2018-03-30T07:48:56.999Z,15.60
2018-03-30T07:49:57.086Z,16.50
2018-03-30T07:50:57.063Z,16.00
2018-03-30T07:51:57.016Z,16.10
2018-03-30T07:52:57.037Z,15.80
2018-03-30T07:53:57.039Z,16.30
2018-03-30T07:54:57.040Z,16.20
2018-03-30T07:55:57.057Z,16.40
2018-03-30T07:56:57.105Z,15.20
2018-03-30T07:57:57.098Z,15.50
2018-03-30T07:58:57.074Z,15.40
2018-03-30T07:59:57.076Z,14.50
2018-03-30T08:00:57.084Z,14.90
2018-03-30T08:01:57.089Z,14.50
2018-03-30T08:02:57.162Z,14.20
2018-03-30T08:03:57.797Z,14.90
2018-03-30T08:04:58.751Z,14.70
2018-03-30T08:05:57.487Z,14.70
2018-03-30T08:06:57.681Z,15.30
2018-03-30T08:07:57.163Z,14.90
2018-03-30T08:08:57.795Z,14.70
2018-03-30T08:09:58.328Z,14.10
2018-03-30T08:10:57.430Z,14.60
2018-03-30T08:11:57.248Z,15.20
2018-03-30T08:12:57.269Z,14.30
2018-03-30T08:13:57.384Z,15.00
2018-03-30T08:14:57.365Z,14.70
2018-03-30T08:15:57.716Z,14.20
2018-03-30T08:16:57.414Z,13.90
2018-03-30T08:17:58.252Z,15.10
2018-03-30T08:18:57.963Z,14.90
2018-03-30T08:19:57.339Z,14.80
2018-03-30T08:20:57.371Z,14.40
2018-03-30T08:21:58.079Z,15.00
2018-03-30T08:22:57.579Z,15.10
2018-03-30T08:23:57.664Z,15.20
2018-03-30T08:24:57.569Z,15.20
2018-03-30T08:25:57.669Z,14.30
2018-03-30T08:26:57.811Z,15.00
2018-03-30T08:27:57.624Z,14.40
2018-03-30T08:28:57.288Z,15.60
2018-03-30T08:29:57.316Z,15.10
2018-03-30T08:30:57.298Z,14.80
2018-03-30T08:31:57.319Z,16.00
2018-03-30T08:32:57.362Z,15.20
2018-03-30T08:33:57.363Z,15.70
2018-03-30T08:34:57.343Z,15.80
2018-03-30T08:35:57.331Z,16.20
2018-03-30T08:36:57.344Z,15.40
2018-03-30T08:37:57.372Z,15.60
2018-03-30T08:38:57.406Z,16.10
2018-03-30T08:39:57.376Z,16.70
2018-03-30T08:40:57.374Z,16.80
2018-03-30T08:41:57.379Z,16.40
2018-03-30T08:42:57.388Z,16.40
2018-03-30T08:43:57.395Z,16.00
2018-03-30T08:44:57.455Z,17.10
2018-03-30T08:45:57.408Z,16.30
2018-03-30T08:46:57.418Z,17.80
2018-03-30T08:47:57.485Z,16.60
2018-03-30T08:48:57.454Z,17.10
2018-03-30T08:49:57.448Z,16.70
2018-03-30T08:50:57.491Z,16.40
2018-03-30T08:51:57.483Z,16.40
2018-03-30T08:52:57.465Z,16.50
2018-03-30T08:53:57.512Z,16.60
2018-03-30T08:54:57.474Z,16.70
2018-03-30T08:55:57.492Z,17.70
2018-03-30T08:56:57.521Z,17.80
2018-03-30T08:57:57.500Z,16.30
2018-03-30T08:58:57.559Z,15.90
2018-03-30T08:59:57.661Z,16.50
2018-03-30T09:00:57.522Z,17.30
2018-03-30T09:01:57.549Z,16.90
2018-03-30T09:02:57.579Z,16.90
2018-03-30T09:03:57.549Z,17.80
2018-03-30T09:04:57.562Z,17.40
2018-03-30T09:05:57.602Z,17.80
2018-03-30T09:06:57.577Z,16.90
2018-03-30T09:07:57.579Z,17.70
2018-03-30T09:08:57.588Z,17.30
2018-03-30T09:09:57.599Z,18.90
2018-03-30T09:10:57.598Z,18.20
2018-03-30T09:11:57.662Z,17.00
2018-03-30T09:12:57.615Z,17.60
2018-03-30T09:13:57.679Z,17.80
2018-03-30T09:14:57.632Z,18.10
2018-03-30T09:15:57.642Z,16.80
2018-03-30T09:16:57.655Z,16.80
2018-03-30T09:17:57.718Z,17.80
2018-03-30T09:18:57.676Z,17.70
2018-03-30T09:19:57.729Z,18.00
2018-03-30T09:20:57.771Z,17.80
2018-03-30T09:21:57.689Z,18.00
2018-03-30T09:22:57.699Z,17.10
2018-03-30T09:23:57.735Z,17.80
2018-03-30T09:24:57.714Z,17.80
2018-03-30T09:25:57.723Z,17.20
2018-03-30T09:26:57.726Z,17.20
2018-03-30T09:27:57.748Z,18.00
2018-03-30T09:28:57.788Z,18.70
2018-03-30T09:29:57.746Z,18.60
2018-03-30T09:30:57.766Z,18.40
2018-03-30T09:31:57.908Z,19.50
2018-03-30T09:32:57.828Z,18.30
2018-03-30T09:33:57.837Z,17.80
2018-03-30T09:34:58.007Z,18.10
2018-03-30T09:35:57.829Z,18.10
2018-03-30T09:36:57.798Z,18.20
2018-03-30T09:37:57.809Z,17.10
2018-03-30T09:38:57.820Z,17.40
2018-03-30T09:39:57.884Z,17.80
2018-03-30T09:40:57.852Z,18.20
2018-03-30T09:41:57.848Z,17.80
2018-03-30T09:42:57.854Z,18.10
2018-03-30T09:43:57.856Z,17.90
2018-03-30T09:44:57.871Z,18.80
2018-03-30T09:45:57.904Z,17.60
2018-03-30T09:46:57.924Z,17.20
2018-03-30T09:47:57.976Z,17.60
2018-03-30T09:48:57.914Z,17.90
2018-03-30T09:49:57.906Z,18.70
2018-03-30T09:50:57.926Z,19.50
2018-03-30T09:51:57.949Z,18.80
2018-03-30T09:52:57.965Z,20.20
2018-03-30T09:53:57.938Z,19.60
2018-03-30T09:54:57.954Z,17.80
2018-03-30T09:55:57.955Z,17.30
2018-03-30T09:56:57.973Z,18.30
2018-03-30T09:57:58.023Z,18.60
2018-03-30T09:58:57.972Z,19.40
2018-03-30T09:59:57.981Z,19.40
2018-03-30T10:00:58.000Z,18.10
2018-03-30T10:01:58.010Z,16.80
2018-03-30T10:02:58.014Z,17.80
2018-03-30T10:03:58.055Z,17.20
2018-03-30T10:04:58.071Z,17.80
2018-03-30T10:05:58.075Z,18.20
2018-03-30T10:06:58.061Z,18.00
2018-03-30T10:07:58.064Z,18.00
2018-03-30T10:08:58.068Z,18.90
2018-03-30T10:09:58.089Z,18.40
2018-03-30T10:10:58.176Z,17.40
2018-03-30T10:11:58.082Z,19.00
2018-03-30T10:12:58.120Z,17.60
2018-03-30T10:13:58.116Z,17.50
2018-03-30T10:14:58.111Z,20.50
2018-03-30T10:15:58.184Z,17.50
2018-03-30T10:16:58.135Z,37.50
2018-03-30T10:17:58.141Z,23.60
2018-03-30T10:18:58.150Z,21.20
2018-03-30T10:19:58.151Z,20.20
2018-03-30T10:20:58.166Z,16.90
2018-03-30T10:21:58.216Z,17.10
2018-03-30T10:22:58.186Z,17.20
2018-03-30T10:23:58.189Z,17.20
2018-03-30T10:24:58.196Z,16.20
2018-03-30T10:25:58.211Z,17.50
2018-03-30T10:26:58.215Z,16.20
2018-03-30T10:27:58.284Z,16.50
2018-03-30T10:28:58.242Z,16.60
2018-03-30T10:29:58.238Z,17.20
2018-03-30T10:30:58.295Z,18.90
2018-03-30T10:31:58.277Z,17.90
2018-03-30T10:32:58.273Z,16.40
2018-03-30T10:33:58.298Z,17.70
2018-03-30T10:34:58.286Z,18.60
2018-03-30T10:35:58.345Z,16.50
2018-03-30T10:36:58.315Z,17.00
2018-03-30T10:37:58.316Z,17.70
2018-03-30T10:38:58.335Z,16.30
2018-03-30T10:39:58.341Z,14.80
2018-03-30T10:40:58.339Z,15.00
2018-03-30T10:41:58.377Z,15.00
2018-03-30T10:42:58.400Z,15.50
2018-03-30T10:43:58.366Z,14.20
2018-03-30T10:44:58.385Z,14.70
2018-03-30T10:45:58.379Z,14.90
2018-03-30T10:46:58.388Z,15.00
2018-03-30T10:47:58.404Z,14.90
2018-03-30T10:48:58.444Z,14.70
2018-03-30T10:49:58.433Z,14.90
2018-03-30T10:50:58.423Z,14.80
2018-03-30T10:51:58.455Z,14.30
2018-03-30T10:52:58.443Z,14.10
2018-03-30T10:53:58.488Z,14.60
2018-03-30T10:54:58.470Z,14.60
2018-03-30T10:55:58.475Z,15.90
2018-03-30T10:56:58.477Z,14.70
2018-03-30T10:57:58.484Z,15.60
2018-03-30T10:58:58.535Z,16.20
2018-03-30T10:59:58.516Z,14.40
2018-03-30T11:00:58.506Z,14.20
2018-03-30T11:01:58.529Z,14.10
2018-03-30T11:02:58.533Z,14.50
2018-03-30T11:03:58.644Z,14.90
2018-03-30T11:04:58.556Z,15.60
2018-03-30T11:05:58.672Z,15.20
2018-03-30T11:06:58.564Z,15.00
2018-03-30T11:07:58.571Z,15.20
2018-03-30T11:08:58.642Z,15.20
2018-03-30T11:09:58.587Z,14.70
2018-03-30T11:10:58.599Z,14.70
2018-03-30T11:11:58.612Z,14.60
2018-03-30T11:12:58.615Z,15.50
2018-03-30T11:13:58.625Z,15.30
2018-03-30T11:14:58.659Z,16.00
2018-03-30T11:15:58.818Z,15.40
2018-03-30T11:16:58.673Z,16.00
2018-03-30T11:17:58.859Z,15.20
2018-03-30T11:18:58.665Z,15.10
2018-03-30T11:19:58.674Z,15.20
2018-03-30T11:20:58.695Z,15.50
2018-03-30T11:21:58.700Z,16.20
2018-03-30T11:22:58.718Z,15.00
2018-03-30T11:23:58.742Z,15.20
2018-03-30T11:24:58.740Z,15.50
2018-03-30T11:25:58.735Z,18.00
2018-03-30T11:26:58.738Z,17.80
2018-03-30T11:27:58.761Z,16.70
2018-03-30T11:28:58.806Z,17.40
2018-03-30T11:29:58.764Z,18.00
2018-03-30T11:30:58.779Z,17.70
2018-03-30T11:31:58.860Z,17.70
2018-03-30T11:32:58.792Z,17.70
2018-03-30T11:33:59.276Z,17.00
2018-03-30T11:34:59.104Z,17.50
2018-03-30T11:35:59.489Z,18.00
2018-03-30T11:36:59.018Z,18.20
2018-03-30T11:37:59.077Z,16.70
2018-03-30T11:38:59.220Z,16.90
2018-03-30T11:39:59.068Z,16.60
2018-03-30T11:40:59.240Z,15.70
2018-03-30T11:41:59.114Z,17.00
2018-03-30T11:42:59.441Z,16.50
2018-03-30T11:43:59.420Z,18.10
2018-03-30T11:44:59.011Z,16.30
2018-03-30T11:45:58.901Z,15.80
2018-03-30T11:46:58.981Z,16.10
2018-03-30T11:47:58.913Z,17.20
2018-03-30T11:48:58.924Z,16.90
2018-03-30T11:49:58.936Z,17.00
2018-03-30T11:50:58.944Z,16.40
2018-03-30T11:51:58.944Z,15.70
2018-03-30T11:52:58.983Z,16.40
2018-03-30T11:53:58.979Z,16.80
2018-03-30T11:54:59.019Z,15.70
2018-03-30T11:55:59.040Z,16.40
2018-03-30T11:56:58.993Z,16.10
2018-03-30T11:57:59.243Z,16.20
2018-03-30T11:58:59.104Z,16.40
2018-03-30T11:59:59.018Z,15.90
2018-03-30T12:00:59.142Z,16.20
2018-03-30T12:01:59.034Z,16.30
2018-03-30T12:02:59.049Z,17.40
2018-03-30T12:03:59.052Z,17.80
2018-03-30T12:04:59.110Z,17.10
2018-03-30T12:05:59.097Z,17.10
2018-03-30T12:06:59.088Z,17.90
2018-03-30T12:07:59.090Z,18.70
2018-03-30T12:08:59.099Z,16.40
2018-03-30T12:09:59.158Z,35.90
2018-03-30T12:10:59.190Z,30.30
2018-03-30T12:11:59.140Z,25.40
2018-03-30T12:12:59.122Z,25.60
2018-03-30T12:13:59.136Z,26.30
2018-03-30T12:14:59.161Z,27.30
2018-03-30T12:15:59.187Z,30.10
2018-03-30T12:16:59.179Z,26.10
2018-03-30T12:17:59.175Z,24.30
2018-03-30T12:18:59.194Z,17.30
2018-03-30T12:19:59.243Z,15.60
2018-03-30T12:20:59.250Z,15.70
2018-03-30T12:21:59.232Z,19.10
2018-03-30T12:22:59.241Z,18.10
2018-03-30T12:23:59.268Z,17.40
2018-03-30T12:24:59.229Z,16.40
2018-03-30T12:25:59.240Z,15.90
2018-03-30T12:26:59.299Z,15.40
2018-03-30T12:27:59.255Z,17.60
2018-03-30T12:28:59.272Z,15.40
2018-03-30T12:29:59.324Z,15.50
2018-03-30T12:30:59.284Z,15.70
2018-03-30T12:31:59.287Z,16.50
2018-03-30T12:32:59.324Z,16.40
2018-03-30T12:33:59.345Z,17.00
2018-03-30T12:34:59.316Z,16.20
2018-03-30T12:35:59.322Z,15.30
2018-03-30T12:36:59.334Z,15.10
2018-03-30T12:37:59.336Z,15.90
2018-03-30T12:38:59.424Z,16.10
2018-03-30T12:39:59.351Z,16.30
2018-03-30T12:40:59.367Z,16.70
2018-03-30T12:41:59.376Z,16.30
2018-03-30T12:42:59.385Z,16.90
2018-03-30T12:43:59.390Z,17.70
2018-03-30T12:44:59.437Z,17.00
2018-03-30T12:45:59.406Z,17.80
2018-03-30T12:46:59.428Z,17.80
2018-03-30T12:47:59.498Z,16.20
2018-03-30T12:48:59.435Z,16.80
2018-03-30T12:49:59.475Z,16.50
2018-03-30T12:50:59.530Z,15.80
2018-03-30T12:51:59.454Z,15.30
2018-03-30T12:52:59.503Z,16.40